Archival Weather

Chandler Muni

Chandler, Arizona (KCHD)

Report from: Wednesday, December 6, 2023 7:47 AM MST
Current time: Wednesday, April 24, 2024 11:29 AM MST

Current weather – Weather history – Daily summaries
Weather forecast

Temperature10.0°C (50.0°F)
Dew point4.0°C (39.2°F)
Winds Calm
Visibility10 mi. (16.1 km)
Clouds Sky clear
Altimeter30.13 in.Hg (1020 mB)
Relative humidity66 %
Density altitude-717 ft. (-218 m)
Flight conditions Visual Meteorological Conditions
Raw dataKCHD 061447Z 00000KT 10SM CLR 10/04 A3013
An error has occurred. This application may no longer respond until reloaded. Reload 🗙